Bigroll Bering — P.C.Z.E — position and weather

sailwx.info

Track history (hours):
 
Tides and Currents Weather Stations Pressure Air Temp Water Temp Dewpoint Dewpoint Depression Visibility Wind Speed Wind Dir Waves Ship Positions

Bigroll Bering

Last reported at 2017-Nov-12 13:18 UTC. Time now 2017-Dec-11 02:14 UTC.
Position N 37°12' W 000°45'.
Warning: this ship's position is 28 days out of date.

Length 173 m; draft 5.7 m.

Type: Cargo ship. MMSI: 244830431.

Date/timePositionNaut miles runAvg speedWind from/ knotsBaromVisibWave heightAir tempDewpointWater temp
2017-Nov-12 13:18N 37°12' W 000°45'3 7.9
2017-Nov-12 12:58N 37°14' W 000°42'14 7.8
2017-Nov-12 11:07N 37°23' W 000°28'1 8.1
2017-Nov-12 10:57N 37°23' W 000°27'4 8.1
2017-Nov-12 10:30N 37°26' W 000°23'4 8.1
2017-Nov-12 10:00N 37°29' W 000°20'4 8.5
2017-Nov-12 09:30N 37°33' W 000°17'4 8.6
2017-Nov-12 09:00N 37°37' W 000°15'  
2017-Nov-07 11:13N 37°45' W 000°18'2 7.4
2017-Nov-07 11:00N 37°43' W 000°19'4 7.0
2017-Nov-07 10:30N 37°40' W 000°20'3 6.5
2017-Nov-07 10:00N 37°37' W 000°22'3 6.9
2017-Nov-07 09:30N 37°34' W 000°25'3 6.8
2017-Nov-07 09:00N 37°31' W 000°27'3 6.8
2017-Nov-07 08:30N 37°29' W 000°29'3 6.8
2017-Nov-07 08:00N 37°26' W 000°32'6 6.6
2017-Nov-07 07:08N 37°22' W 000°36'1 6.3
2017-Nov-07 06:59N 37°21' W 000°37'3 6.3
2017-Nov-07 06:30N 37°19' W 000°40'3 6.4
2017-Nov-07 06:00N 37°17' W 000°43'3 6.5
2017-Nov-07 05:30N 37°14' W 000°46'3 6.7
2017-Nov-07 05:00N 37°12' W 000°49'3 6.7
2017-Nov-07 04:30N 37°10' W 000°52'3 6.8
2017-Nov-07 04:00N 37°08' W 000°56'6 6.9
2017-Nov-07 03:05N 37°04' W 001°02'216 6.6
2017-Nov-05 18:18N 35°59' W 005°18'412.9
2017-Nov-05 18:00N 35°58' W 005°22'  
Track history (hours):
 
Tides and Currents Weather Stations Pressure Air Temp Water Temp Dewpoint Dewpoint Depression Visibility Wind Speed Wind Dir Waves Ship Positions

Bigroll Bering

Last reported at 2017-Nov-12 13:18 UTC. Time now 2017-Dec-11 02:14 UTC.
Position N 37°12' W 000°45'.
Warning: this ship's position is 28 days out of date.

Length 173 m; draft 5.7 m.

Type: Cargo ship. MMSI: 244830431.

Date/timePositionNaut miles runAvg speedWind from/ knotsBaromVisibWave heightAir tempDewpointWater temp
2017-Nov-12 13:18N 37°12' W 000°45'3 7.9
2017-Nov-12 12:58N 37°14' W 000°42'14 7.8
2017-Nov-12 11:07N 37°23' W 000°28'1 8.1
2017-Nov-12 10:57N 37°23' W 000°27'4 8.1
2017-Nov-12 10:30N 37°26' W 000°23'4 8.1
2017-Nov-12 10:00N 37°29' W 000°20'4 8.5
2017-Nov-12 09:30N 37°33' W 000°17'4 8.6
2017-Nov-12 09:00N 37°37' W 000°15'  
2017-Nov-07 11:13N 37°45' W 000°18'2 7.4
2017-Nov-07 11:00N 37°43' W 000°19'4 7.0
2017-Nov-07 10:30N 37°40' W 000°20'3 6.5
2017-Nov-07 10:00N 37°37' W 000°22'3 6.9
2017-Nov-07 09:30N 37°34' W 000°25'3 6.8
2017-Nov-07 09:00N 37°31' W 000°27'3 6.8
2017-Nov-07 08:30N 37°29' W 000°29'3 6.8
2017-Nov-07 08:00N 37°26' W 000°32'6 6.6
2017-Nov-07 07:08N 37°22' W 000°36'1 6.3
2017-Nov-07 06:59N 37°21' W 000°37'3 6.3
2017-Nov-07 06:30N 37°19' W 000°40'3 6.4
2017-Nov-07 06:00N 37°17' W 000°43'3 6.5
2017-Nov-07 05:30N 37°14' W 000°46'3 6.7
2017-Nov-07 05:00N 37°12' W 000°49'3 6.7
2017-Nov-07 04:30N 37°10' W 000°52'3 6.8
2017-Nov-07 04:00N 37°08' W 000°56'6 6.9
2017-Nov-07 03:05N 37°04' W 001°02'216 6.6
2017-Nov-05 18:18N 35°59' W 005°18'412.9
2017-Nov-05 18:00N 35°58' W 005°22'  

Dump ship's entire track history